Time;durP1;ratioP1;P1;durP2;ratioP2;P2;SDS_P1;SDS_P2;PMS_P1;PMS_P2;Temp;Humidity;BMP_temperature;BMP_pressure;BME280_temperature;BME280_humidity;BME280_pressure;Samples;Min_cycle;Max_cycle;Signal;HPM_P1;HPM_P2
2022/03/01 00:01:57;;;;;;;1.87;1.77;;;;;;;0.59;65.26;97481.41;5036725;28;20220;-75
2022/03/01 00:04:24;;;;;;;1.90;1.43;;;;;;;0.37;65.52;97478.34;5036569;28;20205;-74
2022/03/01 00:06:51;;;;;;;2.87;2.23;;;;;;;0.32;65.51;97484.69;5036741;28;20202;-74
2022/03/01 00:09:17;;;;;;;2.83;1.57;;;;;;;0.33;65.66;97482.03;5037298;28;20193;-74
2022/03/01 00:11:44;;;;;;;1.87;1.63;;;;;;;0.14;66.07;97478.78;5036744;28;20228;-74
2022/03/01 00:14:11;;;;;;;1.30;1.20;;;;;;;0.34;64.96;97475.91;5035826;28;20201;-74
2022/03/01 00:16:37;;;;;;;2.13;1.23;;;;;;;0.12;65.83;97474.59;5035846;28;20211;-74
2022/03/01 00:19:05;;;;;;;3.17;1.63;;;;;;;0.34;65.97;97473.31;5036652;28;20225;-74
2022/03/01 00:21:32;;;;;;;4.10;1.97;;;;;;;0.20;65.85;97475.00;5036662;28;20221;-74
2022/03/01 00:23:58;;;;;;;2.30;2.10;;;;;;;0.27;65.35;97479.78;5035919;28;20240;-74
2022/03/01 00:26:25;;;;;;;5.80;2.13;;;;;;;0.09;66.10;97479.97;5036747;28;20221;-74
2022/03/01 00:28:52;;;;;;;3.77;2.67;;;;;;;0.13;65.67;97477.13;5036811;28;20207;-73
2022/03/01 00:31:18;;;;;;;3.57;2.53;;;;;;;0.17;65.22;97478.59;5036470;28;20236;-75
2022/03/01 00:33:45;;;;;;;2.53;1.53;;;;;;;0.14;65.35;97473.59;5035829;28;20205;-74
2022/03/01 00:36:13;;;;;;;0.83;0.83;;;;;;;0.26;66.37;97475.50;5036322;28;20212;-74
2022/03/01 00:38:39;;;;;;;3.27;1.77;;;;;;;0.07;65.45;97469.66;5037411;28;20637;-74
2022/03/01 00:41:06;;;;;;;3.20;2.00;;;;;;;-0.08;66.24;97469.66;5036500;28;20213;-74
2022/03/01 00:43:32;;;;;;;3.27;2.67;;;;;;;-0.07;66.34;97478.31;5035660;28;20597;-73
2022/03/01 00:45:59;;;;;;;5.00;3.00;;;;;;;-0.01;66.33;97476.22;5033562;28;20572;-74
2022/03/01 00:48:26;;;;;;;2.57;2.33;;;;;;;-0.01;65.71;97469.25;5036628;28;20796;-75
2022/03/01 00:50:52;;;;;;;9.50;2.53;;;;;;;-0.01;66.02;97477.03;5035968;28;20202;-74
2022/03/01 00:53:20;;;;;;;3.87;2.07;;;;;;;0.22;65.94;97466.25;5035930;28;20197;-74
2022/03/01 00:55:47;;;;;;;3.60;2.40;;;;;;;0.24;65.11;97472.19;5036284;28;20212;-74
2022/03/01 00:58:14;;;;;;;3.20;1.53;;;;;;;0.34;64.73;97462.94;5036335;28;20212;-75
2022/03/01 01:00:41;;;;;;;0.80;0.80;;;;;;;0.25;64.63;97462.63;5036108;28;20217;-73
2022/03/01 01:03:07;;;;;;;4.07;2.37;;;;;;;0.13;64.64;97453.78;5035560;28;20231;-74
2022/03/01 01:05:34;;;;;;;3.53;1.63;;;;;;;0.13;64.85;97447.78;5036296;28;21058;-74
2022/03/01 01:08:01;;;;;;;2.10;1.80;;;;;;;-0.07;65.63;97449.81;5036190;28;20201;-74
2022/03/01 01:10:29;;;;;;;5.03;2.40;;;;;;;0.05;65.17;97443.03;5036342;28;20208;-73
2022/03/01 01:12:56;;;;;;;2.30;1.60;;;;;;;-0.02;65.25;97446.84;5034978;28;20248;-74
2022/03/01 01:15:22;;;;;;;4.53;2.20;;;;;;;-0.09;66.07;97441.25;5035986;28;20684;-73
2022/03/01 01:17:49;;;;;;;3.10;2.50;;;;;;;-0.07;65.65;97448.03;5036434;28;20220;-75
2022/03/01 01:20:17;;;;;;;6.73;3.43;;;;;;;0.05;65.44;97444.75;5036033;28;20229;-74
2022/03/01 01:22:44;;;;;;;7.50;3.07;;;;;;;0.02;65.13;97445.75;5035064;28;20229;-74
2022/03/01 01:25:15;;;;;;;1.73;1.57;;;;;;;0.16;65.02;97448.44;5036247;28;20201;-75
2022/03/01 01:27:45;;;;;;;2.67;1.67;;;;;;;0.15;64.92;97435.56;5038381;28;20205;-74
2022/03/01 01:30:14;;;;;;;5.60;2.20;;;;;;;-0.14;65.76;97433.75;5039797;28;20193;-75
2022/03/01 01:32:42;;;;;;;2.90;2.17;;;;;;;-0.14;65.07;97433.75;5038863;28;20235;-75
2022/03/01 01:35:10;;;;;;;1.87;1.67;;;;;;;-0.17;65.61;97427.91;5039622;28;20198;-74
2022/03/01 01:37:37;;;;;;;2.07;1.63;;;;;;;-0.32;65.37;97428.72;5039572;28;20662;-76
2022/03/01 01:40:06;;;;;;;4.00;1.80;;;;;;;-0.28;65.53;97430.22;5039861;28;20224;-75
2022/03/01 01:42:33;;;;;;;1.97;1.43;;;;;;;-0.36;66.06;97432.41;5038403;28;20225;-74
2022/03/01 01:45:03;;;;;;;6.53;2.33;;;;;;;-0.14;65.61;97438.09;5036647;28;20207;-76
2022/03/01 01:47:30;;;;;;;6.93;3.03;;;;;;;-0.44;65.92;97437.16;5039723;28;20230;-75
2022/03/01 01:49:56;;;;;;;2.00;1.80;;;;;;;-0.49;65.91;97436.56;5040618;28;20203;-74
2022/03/01 01:52:24;;;;;;;1.80;1.27;;;;;;;-0.29;65.45;97433.75;5038219;28;20244;-74
2022/03/01 01:54:51;;;;;;;8.97;2.00;;;;;;;-0.77;65.96;97438.94;5040886;28;20205;-75
2022/03/01 01:57:19;;;;;;;2.27;1.40;;;;;;;-0.54;65.77;97433.38;5041041;28;20205;-75
2022/03/01 01:59:47;;;;;;;2.10;1.63;;;;;;;-0.56;65.92;97438.66;5039548;28;20229;-74
2022/03/01 02:02:17;;;;;;;1.70;1.60;;;;;;;-0.44;66.05;97437.16;5038355;28;20223;-75
2022/03/01 02:04:44;;;;;;;1.73;1.63;;;;;;;-0.48;66.05;97436.47;5039094;28;20205;-74
2022/03/01 02:07:12;;;;;;;8.37;3.80;;;;;;;-0.53;66.53;97441.06;5038748;28;20202;-74
2022/03/01 02:09:38;;;;;;;7.17;2.83;;;;;;;-0.64;66.00;97431.38;5039343;28;20208;-74
2022/03/01 02:12:06;;;;;;;2.47;1.67;;;;;;;-0.72;66.91;97434.38;5039295;28;20224;-75
2022/03/01 02:14:34;;;;;;;2.27;1.63;;;;;;;-0.49;66.34;97431.41;5038685;28;20205;-74
2022/03/01 02:17:03;;;;;;;1.57;1.47;;;;;;;-0.58;65.76;97435.28;5038375;28;20201;-75
2022/03/01 02:19:31;;;;;;;4.53;3.27;;;;;;;-0.58;66.53;97427.53;5039118;28;20810;-75
2022/03/01 02:21:59;;;;;;;2.53;2.27;;;;;;;-0.57;66.45;97433.56;5038837;28;20229;-74
2022/03/01 02:24:27;;;;;;;1.30;1.20;;;;;;;-0.55;66.16;97431.72;5038206;28;20213;-75
2022/03/01 02:26:56;;;;;;;3.33;2.57;;;;;;;-0.72;66.44;97431.78;5039020;28;20211;-75
2022/03/01 02:29:22;;;;;;;1.53;1.00;;;;;;;-0.71;66.50;97428.28;5039101;28;20288;-75
2022/03/01 02:31:49;;;;;;;6.30;1.87;;;;;;;-0.74;66.86;97431.00;5035433;28;20225;-75
2022/03/01 02:34:16;;;;;;;3.50;2.87;;;;;;;-0.91;66.82;97427.66;5038001;28;20201;-75
2022/03/01 02:36:43;;;;;;;6.70;1.70;;;;;;;-1.02;67.37;97432.53;5038977;28;20197;-75
2022/03/01 02:39:13;;;;;;;2.63;2.37;;;;;;;-0.82;68.69;97428.00;5037960;28;20201;-75
2022/03/01 02:41:40;;;;;;;0.73;0.73;;;;;;;-0.94;68.96;97428.63;5038524;28;20948;-74
2022/03/01 02:44:07;;;;;;;3.23;1.87;;;;;;;-0.96;68.90;97420.09;5037830;28;20197;-75
2022/03/01 02:46:34;;;;;;;2.17;1.60;;;;;;;-0.99;69.21;97420.28;5034911;28;20208;-74
2022/03/01 02:49:01;;;;;;;2.90;2.10;;;;;;;-0.93;69.86;97419.13;5038456;28;20197;-75
2022/03/01 02:51:28;;;;;;;4.30;3.27;;;;;;;-1.02;68.99;97420.44;5038669;28;20717;-74
2022/03/01 02:53:56;;;;;;;3.50;2.60;;;;;;;-1.00;68.99;97413.41;5037355;28;20201;-74
2022/03/01 02:56:24;;;;;;;2.03;1.93;;;;;;;-0.85;69.27;97410.06;5037922;28;20255;-75
2022/03/01 02:58:51;;;;;;;4.10;2.97;;;;;;;-0.94;68.77;97415.72;5039030;28;20683;-74
2022/03/01 03:01:17;;;;;;;2.40;1.10;;;;;;;-0.95;68.86;97410.63;5038310;28;20290;-74
2022/03/01 03:03:44;;;;;;;2.20;2.00;;;;;;;-0.93;68.81;97407.03;5036878;28;20215;-75
2022/03/01 03:06:11;;;;;;;3.70;1.87;;;;;;;-0.94;68.69;97410.53;5038241;28;20205;-74
2022/03/01 03:08:37;;;;;;;3.60;2.60;;;;;;;-0.94;68.78;97401.91;5037925;28;20695;-74
2022/03/01 03:11:04;;;;;;;2.57;1.97;;;;;;;-1.00;68.99;97410.84;5037420;28;20198;-74
2022/03/01 03:13:32;;;;;;;1.30;1.17;;;;;;;-0.97;69.20;97397.75;5037610;28;20205;-74
2022/03/01 03:15:58;;;;;;;1.33;0.97;;;;;;;-1.13;69.42;97404.63;5038223;28;20201;-75
2022/03/01 03:18:25;;;;;;;1.27;1.17;;;;;;;-1.13;69.13;97402.03;5037691;28;20213;-75
2022/03/01 03:20:51;;;;;;;1.23;1.13;;;;;;;-1.22;68.09;97410.28;5037653;28;20669;-75
2022/03/01 03:23:18;;;;;;;8.07;2.37;;;;;;;-1.37;68.51;97411.97;5036893;28;20201;-74
2022/03/01 03:25:44;;;;;;;3.50;2.00;;;;;;;-1.52;68.04;97410.97;5037610;28;20205;-74
2022/03/01 03:28:11;;;;;;;5.63;2.03;;;;;;;-1.51;68.35;97409.25;5037907;28;20991;-74
2022/03/01 03:30:39;;;;;;;9.33;2.77;;;;;;;-1.40;68.65;97405.22;5033764;28;20588;-74
2022/03/01 03:33:05;;;;;;;7.43;3.27;;;;;;;-1.88;68.35;97396.47;5036579;28;20227;-74
2022/03/01 03:35:32;;;;;;;3.10;2.40;;;;;;;-1.77;68.63;97397.59;5037418;28;20208;-74
2022/03/01 03:37:59;;;;;;;4.93;1.70;;;;;;;-1.71;69.16;97396.47;5037624;28;20237;-74
2022/03/01 03:40:25;;;;;;;3.40;2.33;;;;;;;-1.77;70.08;97397.59;5037666;28;20565;-74
2022/03/01 03:42:52;;;;;;;3.30;2.40;;;;;;;-1.93;70.29;97405.34;5036708;28;20232;-74
2022/03/01 03:45:18;;;;;;;11.67;2.73;;;;;;;-1.86;69.83;97397.19;5033714;28;20696;-75
2022/03/01 03:47:46;;;;;;;1.43;1.33;;;;;;;-1.67;69.97;97392.81;5037585;28;20213;-75
2022/03/01 03:50:13;;;;;;;2.03;1.87;;;;;;;-1.79;70.42;97391.66;5036287;28;20204;-74
2022/03/01 03:52:41;;;;;;;2.40;1.87;;;;;;;-1.92;69.67;97397.53;5035731;28;20335;-75
2022/03/01 03:55:10;;;;;;;6.80;2.67;;;;;;;-1.76;70.17;97406.19;5037430;28;20205;-74
2022/03/01 03:57:38;;;;;;;1.73;1.13;;;;;;;-1.80;70.57;97392.56;5037099;28;20213;-75
2022/03/01 04:00:07;;;;;;;2.07;1.43;;;;;;;-1.75;70.79;97398.34;5037060;28;20228;-74
2022/03/01 04:02:34;;;;;;;4.87;1.47;;;;;;;-1.84;71.42;97400.56;5037036;28;20221;-74
2022/03/01 04:05:02;;;;;;;4.27;1.77;;;;;;;-1.56;71.33;97393.94;5036231;28;20203;-74
2022/03/01 04:07:29;;;;;;;1.80;1.37;;;;;;;-1.71;71.34;97399.88;5036763;28;20207;-74
2022/03/01 04:09:56;;;;;;;2.23;1.90;;;;;;;-1.76;70.98;97395.84;5037574;28;20224;-74
2022/03/01 04:12:22;;;;;;;4.97;3.07;;;;;;;-1.78;71.05;97397.69;5036825;28;20233;-74
2022/03/01 04:14:49;;;;;;;2.43;1.70;;;;;;;-1.67;71.20;97404.00;5036550;28;20216;-74
2022/03/01 04:17:15;;;;;;;1.17;1.10;;;;;;;-1.68;70.72;97406.63;5036900;28;20196;-74
2022/03/01 04:19:42;;;;;;;10.73;1.30;;;;;;;-1.77;70.61;97412.25;5037182;28;20204;-74
2022/03/01 04:22:10;;;;;;;4.67;1.93;;;;;;;-1.61;71.08;97411.44;5036275;28;20250;-74
2022/03/01 04:24:37;;;;;;;5.00;2.97;;;;;;;-1.65;71.34;97414.25;5036523;28;20263;-74
2022/03/01 04:27:04;;;;;;;1.30;1.20;;;;;;;-1.67;71.03;97408.31;5037502;28;20224;-74
2022/03/01 04:29:30;;;;;;;1.93;1.60;;;;;;;-1.80;71.68;97405.47;5036546;28;20239;-74
2022/03/01 04:31:57;;;;;;;9.53;1.67;;;;;;;-1.96;72.40;97411.50;5036542;28;20217;-74
2022/03/01 04:34:23;;;;;;;3.40;1.60;;;;;;;-2.03;71.85;97410.09;5036251;28;20224;-74
2022/03/01 04:36:50;;;;;;;6.20;2.43;;;;;;;-2.11;71.52;97404.47;5036728;28;20220;-74
2022/03/01 04:39:18;;;;;;;3.40;2.20;;;;;;;-2.15;70.59;97399.50;5036914;28;20732;-74
2022/03/01 04:41:44;;;;;;;2.57;1.67;;;;;;;-2.38;70.72;97398.03;5036461;28;21079;-74
2022/03/01 04:44:11;;;;;;;0.40;0.40;;;;;;;-2.38;69.45;97392.88;5035839;28;20210;-74
2022/03/01 04:46:37;;;;;;;1.53;1.43;;;;;;;-2.55;69.40;97393.72;5032887;28;20208;-74
2022/03/01 04:49:04;;;;;;;1.83;1.73;;;;;;;-2.58;70.43;97386.09;5037291;28;20209;-74
2022/03/01 04:51:30;;;;;;;2.30;2.10;;;;;;;-2.67;72.55;97383.94;5036569;28;20261;-74
2022/03/01 04:53:57;;;;;;;1.40;1.30;;;;;;;-2.64;74.17;97399.31;5035508;28;20582;-73
2022/03/01 04:56:25;;;;;;;1.73;1.63;;;;;;;-2.46;75.79;97388.13;5036714;28;20207;-73
2022/03/01 04:58:52;;;;;;;6.90;2.57;;;;;;;-2.63;76.12;97388.09;5036393;28;20215;-74
2022/03/01 05:01:19;;;;;;;2.53;1.70;;;;;;;-2.89;75.60;97388.41;5036394;28;20238;-73
2022/03/01 05:03:46;;;;;;;9.07;2.27;;;;;;;-2.72;73.72;97396.25;5039870;28;20308;-73
2022/03/01 05:06:12;;;;;;;1.07;0.97;;;;;;;-2.65;73.80;97393.28;5040366;28;20214;-73
2022/03/01 05:08:39;;;;;;;7.37;2.23;;;;;;;-2.49;74.09;97393.44;5040444;28;20207;-73
2022/03/01 05:11:05;;;;;;;1.87;1.30;;;;;;;-2.44;74.14;97400.06;5040762;28;20218;-73
2022/03/01 05:13:34;;;;;;;1.20;1.20;;;;;;;-2.25;74.58;97399.13;5039537;28;20205;-74
2022/03/01 05:16:00;;;;;;;2.57;2.10;;;;;;;-2.34;74.18;97398.75;5039915;28;20200;-73
2022/03/01 05:18:27;;;;;;;2.10;2.00;;;;;;;-2.14;73.27;97407.22;5040399;28;20213;-73
2022/03/01 05:20:54;;;;;;;1.80;1.57;;;;;;;-2.15;73.25;97405.53;5040505;28;20344;-73
2022/03/01 05:23:20;;;;;;;1.80;1.27;;;;;;;-2.06;72.87;97405.09;5039285;28;20204;-73
2022/03/01 05:25:48;;;;;;;2.80;1.87;;;;;;;-1.97;72.95;97409.81;5040022;28;20204;-74
2022/03/01 05:28:15;;;;;;;2.13;1.70;;;;;;;-2.13;72.99;97403.69;5043597;28;20602;-75
2022/03/01 05:30:43;;;;;;;1.30;1.30;;;;;;;-2.01;73.54;97403.13;5044284;28;21123;-74
2022/03/01 05:33:09;;;;;;;3.97;2.13;;;;;;;-2.25;73.57;97412.03;5039483;28;20229;-74
2022/03/01 05:35:36;;;;;;;1.63;1.53;;;;;;;-2.42;73.76;97409.41;5040508;28;20580;-74
2022/03/01 05:38:02;;;;;;;1.50;1.40;;;;;;;-2.47;74.71;97413.09;5039829;28;20211;-74
2022/03/01 05:40:30;;;;;;;2.77;2.57;;;;;;;-2.89;78.12;97414.19;5039902;28;20234;-74
2022/03/01 05:42:58;;;;;;;4.07;1.40;;;;;;;-2.71;77.78;97415.94;5039140;28;20590;-74
2022/03/01 05:45:25;;;;;;;10.37;2.93;;;;;;;-2.45;77.03;97415.63;5036898;28;20199;-74
2022/03/01 05:47:54;;;;;;;1.57;1.47;;;;;;;-2.13;75.39;97403.69;5039666;28;20919;-74
2022/03/01 05:50:21;;;;;;;10.53;2.73;;;;;;;-2.27;75.00;97406.09;5039710;28;20216;-74
2022/03/01 05:52:48;;;;;;;2.23;1.90;;;;;;;-2.32;75.00;97410.66;5039543;28;20333;-74
2022/03/01 05:55:15;;;;;;;6.80;2.30;;;;;;;-2.13;74.36;97413.19;5039555;28;20669;-76
2022/03/01 05:57:42;;;;;;;1.33;1.23;;;;;;;-2.21;73.77;97408.38;5038714;28;20211;-74
2022/03/01 06:00:12;;;;;;;1.63;1.53;;;;;;;-2.03;73.70;97410.09;5039551;28;20204;-74
2022/03/01 06:02:38;;;;;;;6.77;2.10;;;;;;;-2.36;74.49;97422.00;5040793;28;20319;-74
2022/03/01 06:05:07;;;;;;;3.00;2.70;;;;;;;-2.07;74.42;97423.25;5041520;28;20198;-74
2022/03/01 06:07:33;;;;;;;6.80;1.87;;;;;;;-2.20;74.59;97416.97;5041604;28;20208;-72
2022/03/01 06:10:00;;;;;;;3.27;1.70;;;;;;;-2.14;74.55;97429.59;5040842;28;20685;-72
2022/03/01 06:12:26;;;;;;;4.00;3.30;;;;;;;-2.18;74.61;97430.66;5039680;28;20245;-73
2022/03/01 06:14:53;;;;;;;4.93;1.97;;;;;;;-2.12;73.70;97428.63;5039875;28;20313;-74
2022/03/01 06:17:19;;;;;;;3.70;1.93;;;;;;;-2.04;72.96;97429.06;5040748;28;20212;-73
2022/03/01 06:19:46;;;;;;;1.93;1.73;;;;;;;-1.99;72.90;97427.13;5040899;28;20209;-75
2022/03/01 06:22:14;;;;;;;3.60;2.00;;;;;;;-1.82;72.59;97415.06;5040453;28;20232;-73
2022/03/01 06:24:42;;;;;;;1.90;0.97;;;;;;;-1.79;72.41;97424.44;5040303;28;20220;-74
2022/03/01 06:27:09;;;;;;;2.10;1.90;;;;;;;-1.83;72.18;97428.06;5040745;28;20197;-74
2022/03/01 06:29:36;;;;;;;0.93;0.93;;;;;;;-1.80;71.60;97438.25;5039619;28;20549;-73
2022/03/01 06:32:04;;;;;;;2.80;2.30;;;;;;;-1.80;72.04;97439.06;5040215;28;20239;-72
2022/03/01 06:34:31;;;;;;;6.87;4.37;;;;;;;-1.75;71.83;97436.28;5040014;28;20204;-75
2022/03/01 06:36:57;;;;;;;5.43;2.27;;;;;;;-1.83;72.04;97434.97;5040263;28;20234;-74
2022/03/01 06:39:25;;;;;;;1.70;1.60;;;;;;;-1.91;73.49;97437.09;5040882;28;20423;-72
2022/03/01 06:41:52;;;;;;;3.23;1.07;;;;;;;-2.10;74.21;97433.69;5040124;28;20335;-73
2022/03/01 06:44:19;;;;;;;9.30;3.87;;;;;;;-2.03;73.92;97430.75;5039576;28;20204;-73
2022/03/01 06:46:46;;;;;;;5.43;2.67;;;;;;;-1.94;74.26;97432.06;5039842;28;20215;-72
2022/03/01 06:49:13;;;;;;;3.57;1.87;;;;;;;-2.05;74.87;97440.34;5041675;28;20212;-75
2022/03/01 06:51:39;;;;;;;4.03;2.90;;;;;;;-1.84;75.18;97436.72;5042215;28;20225;-74
2022/03/01 06:54:06;;;;;;;3.50;2.17;;;;;;;-1.82;74.72;97440.06;5043158;28;20211;-72
2022/03/01 06:56:34;;;;;;;2.20;1.73;;;;;;;-1.61;75.03;97439.03;5043034;28;20204;-73
2022/03/01 06:59:01;;;;;;;4.13;2.97;;;;;;;-1.71;74.36;97448.13;5042568;28;20704;-76
2022/03/01 07:01:27;;;;;;;0.90;0.90;;;;;;;-1.39;73.84;97444.81;5042446;28;20233;-76
2022/03/01 07:03:54;;;;;;;4.47;1.73;;;;;;;-1.31;73.55;97447.84;5041523;28;20650;-74
2022/03/01 07:06:20;;;;;;;3.07;2.20;;;;;;;-1.41;73.14;97452.63;5041936;28;20204;-74
2022/03/01 07:08:48;;;;;;;2.93;1.53;;;;;;;-1.33;72.73;97447.09;5042421;28;20213;-72
2022/03/01 07:11:15;;;;;;;3.20;2.00;;;;;;;-1.05;73.04;97445.63;5041507;28;20244;-73
2022/03/01 07:13:43;;;;;;;1.57;1.33;;;;;;;-0.78;71.99;97447.59;5043434;28;20666;-74
2022/03/01 07:16:09;;;;;;;1.60;1.50;;;;;;;-0.93;71.80;97444.97;5044239;28;20219;-76
2022/03/01 07:18:36;;;;;;;3.23;2.47;;;;;;;-0.87;71.41;97445.50;5045782;28;20212;-72
2022/03/01 07:21:03;;;;;;;2.73;2.10;;;;;;;-0.88;71.39;97443.84;5044710;28;20225;-74
2022/03/01 07:23:29;;;;;;;0.57;0.57;;;;;;;-0.73;71.52;97447.38;5043745;28;20653;-72
2022/03/01 07:25:56;;;;;;;4.77;1.80;;;;;;;-0.78;72.36;97445.03;5045705;28;20205;-73
2022/03/01 07:28:22;;;;;;;2.20;1.90;;;;;;;-0.62;70.61;97446.72;5045368;28;20271;-73
2022/03/01 07:30:50;;;;;;;1.93;1.00;;;;;;;-0.46;70.54;97450.19;5045010;28;21028;-73
2022/03/01 07:33:17;;;;;;;1.07;0.90;;;;;;;-0.67;70.28;97453.06;5044447;28;20201;-71
2022/03/01 07:35:43;;;;;;;3.20;1.33;;;;;;;-0.41;70.28;97457.69;5045655;28;20319;-74
2022/03/01 07:38:10;;;;;;;3.10;2.57;;;;;;;-0.11;69.10;97451.72;5044052;28;20220;-73
2022/03/01 07:40:36;;;;;;;5.03;1.73;;;;;;;0.01;68.58;97449.28;5042262;28;20684;-72
2022/03/01 07:43:03;;;;;;;1.43;1.23;;;;;;;0.12;68.33;97451.28;5039777;28;20229;-74
2022/03/01 07:45:30;;;;;;;1.87;1.57;;;;;;;0.17;67.11;97457.88;5043795;28;20918;-74
2022/03/01 07:48:00;;;;;;;3.90;2.80;;;;;;;0.39;67.30;97450.56;5043779;28;20205;-73
2022/03/01 07:50:27;;;;;;;3.07;1.27;;;;;;;0.25;68.15;97458.28;5044498;28;20268;-72
2022/03/01 07:52:53;;;;;;;1.70;1.60;;;;;;;0.36;65.75;97455.94;5042698;28;20221;-74
2022/03/01 07:55:20;;;;;;;4.20;2.10;;;;;;;0.39;66.33;97460.13;5044372;28;20212;-71
2022/03/01 07:57:47;;;;;;;3.13;1.97;;;;;;;0.30;66.34;97458.88;5044193;28;20209;-74
2022/03/01 08:00:14;;;;;;;2.13;1.40;;;;;;;0.72;66.04;97461.63;5043897;28;20202;-73
2022/03/01 08:02:41;;;;;;;4.27;1.80;;;;;;;0.69;65.93;97457.44;5042591;28;20248;-73
2022/03/01 08:05:10;;;;;;;4.13;1.67;;;;;;;0.71;65.02;97457.34;5044479;28;20988;-73
2022/03/01 08:07:37;;;;;;;1.40;1.30;;;;;;;0.75;64.73;97453.66;5044137;28;20223;-74
2022/03/01 08:10:04;;;;;;;2.13;1.10;;;;;;;0.94;64.69;97459.44;5042715;28;20205;-72
2022/03/01 08:12:30;;;;;;;5.07;2.17;;;;;;;1.01;64.46;97455.59;5042013;28;20617;-73
2022/03/01 08:14:57;;;;;;;1.73;1.47;;;;;;;1.08;64.50;97454.28;5042705;28;20214;-73
2022/03/01 08:17:23;;;;;;;1.53;1.07;;;;;;;1.32;63.79;97449.31;5042029;28;20212;-74
2022/03/01 08:19:50;;;;;;;5.00;2.10;;;;;;;1.37;63.92;97454.22;5041543;28;20206;-74
2022/03/01 08:22:18;;;;;;;3.73;1.30;;;;;;;1.50;62.82;97449.94;5040850;28;20235;-74
2022/03/01 08:24:44;;;;;;;2.67;1.70;;;;;;;1.50;63.72;97452.53;5041095;28;20689;-73
2022/03/01 08:27:11;;;;;;;2.23;1.60;;;;;;;1.40;62.18;97444.50;5041052;28;20971;-74
2022/03/01 08:29:37;;;;;;;2.20;1.33;;;;;;;1.55;61.98;97442.72;5038660;28;20207;-74
2022/03/01 08:32:05;;;;;;;4.80;2.93;;;;;;;1.63;61.92;97441.31;5036758;28;20697;-74
2022/03/01 08:34:31;;;;;;;2.90;1.67;;;;;;;1.88;62.34;97437.13;5036913;28;20392;-74
2022/03/01 08:36:57;;;;;;;4.63;1.20;;;;;;;2.00;58.85;97435.53;5037568;28;20692;-74
2022/03/01 08:39:25;;;;;;;4.20;2.33;;;;;;;2.11;58.62;97433.88;5036909;28;20213;-73
2022/03/01 08:41:54;;;;;;;2.17;1.93;;;;;;;1.83;59.19;97428.78;5034914;28;20237;-72
2022/03/01 08:44:21;;;;;;;2.23;1.40;;;;;;;2.14;58.75;97432.84;5036746;28;20296;-73
2022/03/01 08:46:47;;;;;;;3.00;2.33;;;;;;;2.17;60.69;97432.69;5037354;28;20209;-74
2022/03/01 08:49:14;;;;;;;7.47;2.10;;;;;;;2.32;59.56;97429.06;5035855;28;20576;-74
2022/03/01 08:51:40;;;;;;;3.90;1.93;;;;;;;2.16;58.54;97431.81;5035682;28;20221;-74
2022/03/01 08:54:07;;;;;;;1.23;1.20;;;;;;;2.24;58.34;97421.78;5036542;28;20231;-74
2022/03/01 08:56:35;;;;;;;3.40;1.53;;;;;;;2.30;57.65;97416.19;5036224;28;20208;-74
2022/03/01 08:59:01;;;;;;;6.17;2.77;;;;;;;2.27;58.10;97423.38;5036053;28;20220;-74
2022/03/01 09:01:28;;;;;;;2.97;1.97;;;;;;;2.59;56.54;97417.75;5036640;28;20595;-74
2022/03/01 09:03:54;;;;;;;7.70;1.67;;;;;;;2.80;56.00;97419.75;5035240;28;20448;-73
2022/03/01 09:06:21;;;;;;;2.97;2.03;;;;;;;2.74;57.26;97419.34;5036342;28;20211;-73
2022/03/01 09:08:48;;;;;;;1.53;1.33;;;;;;;3.02;57.58;97420.00;5036727;28;20845;-73
2022/03/01 09:11:14;;;;;;;2.27;2.07;;;;;;;3.02;55.82;97409.59;5035565;28;20510;-74
2022/03/01 09:13:42;;;;;;;5.57;2.63;;;;;;;2.54;57.04;97417.19;5035162;28;20873;-74
2022/03/01 09:16:09;;;;;;;5.13;2.50;;;;;;;3.01;56.13;97415.72;5036918;28;20203;-73
2022/03/01 09:18:36;;;;;;;3.87;2.50;;;;;;;3.10;54.60;97409.88;5036663;28;20302;-74
2022/03/01 09:21:03;;;;;;;3.33;1.70;;;;;;;3.36;55.76;97408.94;5036512;28;20729;-72
2022/03/01 09:23:31;;;;;;;3.03;1.70;;;;;;;3.26;55.46;97407.91;5035838;28;20906;-74
2022/03/01 09:25:57;;;;;;;6.23;3.13;;;;;;;3.30;55.03;97399.78;5035930;28;20209;-74
2022/03/01 09:28:24;;;;;;;4.50;2.07;;;;;;;3.60;54.49;97399.44;5036778;28;20725;-74
2022/03/01 09:30:52;;;;;;;1.80;1.37;;;;;;;3.94;53.43;97396.97;5036349;28;20215;-74
2022/03/01 09:33:19;;;;;;;0.90;0.90;;;;;;;3.65;54.70;97393.81;5034764;28;20197;-74
2022/03/01 09:35:46;;;;;;;5.80;2.47;;;;;;;3.88;54.32;97392.16;5035580;28;20760;-72
2022/03/01 09:38:13;;;;;;;4.80;2.50;;;;;;;3.85;55.45;97385.41;5035831;28;20209;-74
2022/03/01 09:40:39;;;;;;;6.10;2.17;;;;;;;3.82;55.57;97382.19;5035340;28;20213;-73
2022/03/01 09:43:06;;;;;;;2.60;1.73;;;;;;;3.73;54.40;97383.66;5032083;28;20229;-74
2022/03/01 09:45:33;;;;;;;5.10;1.83;;;;;;;3.87;53.22;97380.06;5036154;28;20213;-74
2022/03/01 09:48:00;;;;;;;6.80;2.43;;;;;;;4.26;52.59;97380.66;5036420;28;20205;-74
2022/03/01 09:50:30;;;;;;;1.70;1.40;;;;;;;4.09;53.13;97381.06;5038770;28;20574;-74
2022/03/01 09:52:58;;;;;;;6.77;2.57;;;;;;;4.36;52.66;97371.22;5037921;28;20658;-74
2022/03/01 09:55:26;;;;;;;5.47;2.70;;;;;;;4.13;52.94;97356.41;5039500;28;20197;-73
2022/03/01 09:57:52;;;;;;;8.53;2.23;;;;;;;4.44;53.10;97361.91;5038682;28;20670;-73
2022/03/01 10:00:19;;;;;;;4.00;1.50;;;;;;;4.63;53.35;97354.34;5038403;28;20213;-73
2022/03/01 10:02:46;;;;;;;6.03;2.83;;;;;;;4.05;52.84;97355.28;5039352;28;20240;-74
2022/03/01 10:05:15;;;;;;;5.10;2.60;;;;;;;5.00;51.17;97358.47;5041615;28;20205;-74
2022/03/01 10:07:44;;;;;;;8.40;2.37;;;;;;;4.44;52.10;97353.22;5040525;28;20237;-74
2022/03/01 10:10:16;;;;;;;8.77;2.77;;;;;;;4.86;51.74;97356.06;5040728;28;20205;-74
2022/03/01 10:12:43;;;;;;;3.87;1.57;;;;;;;5.10;50.55;97352.44;5040758;28;20225;-73
2022/03/01 10:15:13;;;;;;;3.27;1.63;;;;;;;5.13;48.88;97347.00;5039824;28;20217;-74
2022/03/01 10:17:42;;;;;;;7.90;1.87;;;;;;;5.09;51.07;97350.78;5039616;28;20678;-74
2022/03/01 10:20:10;;;;;;;5.83;1.60;;;;;;;4.54;53.30;97346.38;5038269;28;20208;-74
2022/03/01 10:22:45;;;;;;;6.07;2.43;;;;;;;4.95;51.47;97345.78;5037350;28;20260;-74
2022/03/01 10:25:15;;;;;;;3.00;2.20;;;;;;;5.07;50.00;97337.00;5038540;28;20564;-74
2022/03/01 10:27:44;;;;;;;2.73;2.13;;;;;;;5.42;50.54;97335.09;5038278;28;20213;-73
2022/03/01 10:30:12;;;;;;;2.17;1.50;;;;;;;5.20;49.89;97335.09;5037821;28;20909;-74
2022/03/01 10:32:39;;;;;;;1.37;1.27;;;;;;;5.57;48.05;97324.28;5037314;28;20362;-74
2022/03/01 10:35:08;;;;;;;2.07;1.70;;;;;;;5.92;49.15;97324.13;5038790;28;20468;-74
2022/03/01 10:37:36;;;;;;;8.87;2.77;;;;;;;5.76;47.91;97323.72;5038001;28;20208;-74
2022/03/01 10:40:15;;;;;;;5.13;2.43;;;;;;;5.90;49.07;97310.38;5038077;28;20201;-74
2022/03/01 10:42:43;;;;;;;4.47;2.97;;;;;;;6.10;47.75;97292.94;5033880;28;20225;-74
2022/03/01 10:45:10;;;;;;;2.77;1.57;;;;;;;5.92;48.09;97295.38;5037556;28;20378;-74
2022/03/01 10:47:38;;;;;;;5.93;2.10;;;;;;;6.24;47.97;97290.03;5037640;28;20209;-74
2022/03/01 10:50:07;;;;;;;8.53;3.03;;;;;;;6.45;47.82;97288.25;5038067;28;20309;-74
2022/03/01 10:52:34;;;;;;;6.90;3.13;;;;;;;6.44;47.50;97288.38;5037368;28;20239;-74
2022/03/01 10:55:01;;;;;;;3.93;1.77;;;;;;;6.43;45.73;97284.94;5037511;28;20682;-74
2022/03/01 10:57:29;;;;;;;7.33;2.30;;;;;;;6.77;46.12;97282.00;5038035;28;20201;-74
2022/03/01 10:59:55;;;;;;;6.00;2.90;;;;;;;6.63;46.64;97271.00;5036932;28;20201;-74
2022/03/01 11:02:22;;;;;;;3.17;1.40;;;;;;;6.45;45.74;97275.16;5036838;28;20231;-74
2022/03/01 11:04:50;;;;;;;8.27;2.87;;;;;;;6.58;45.59;97274.97;5037702;28;20205;-73
2022/03/01 11:07:19;;;;;;;5.30;2.53;;;;;;;6.70;45.31;97277.41;5037873;28;20201;-74
2022/03/01 11:09:46;;;;;;;4.33;2.77;;;;;;;6.15;45.67;97269.84;5037201;28;20216;-74
2022/03/01 11:12:13;;;;;;;4.53;2.40;;;;;;;6.42;46.17;97267.56;5036810;28;20217;-73
2022/03/01 11:14:55;;;;;;;8.03;1.60;;;;;;;6.85;44.49;97265.66;5037849;28;20213;-73
2022/03/01 11:17:31;;;;;;;7.67;2.77;;;;;;;7.07;44.76;97257.63;5037949;28;20201;-74
2022/03/01 11:20:02;;;;;;;5.07;2.47;;;;;;;7.40;44.01;97252.94;5037660;28;20884;-74
2022/03/01 11:22:39;;;;;;;3.40;2.13;;;;;;;7.48;44.02;97251.28;5036668;28;20247;-73
2022/03/01 11:25:07;;;;;;;4.37;2.63;;;;;;;7.32;44.92;97248.34;5036918;28;20602;-74
2022/03/01 11:27:44;;;;;;;6.63;2.60;;;;;;;7.49;43.91;97249.50;5037772;28;21207;-74
2022/03/01 11:30:14;;;;;;;5.33;2.33;;;;;;;7.29;42.89;97251.25;5037690;28;20216;-74
2022/03/01 11:32:42;;;;;;;3.60;2.07;;;;;;;7.36;42.64;97241.06;5036694;28;20224;-74
2022/03/01 11:35:17;;;;;;;13.53;2.60;;;;;;;7.64;42.63;97235.88;5037717;28;20625;-74
2022/03/01 11:37:44;;;;;;;2.93;1.90;;;;;;;6.97;42.43;97241.03;5037807;28;20630;-74